createdAt,value
2023-04-18T00:01:50.292Z,8.07
2023-04-18T00:04:19.250Z,8.40
2023-04-18T00:06:49.709Z,8.82
2023-04-18T00:09:17.207Z,8.63
2023-04-18T00:11:45.287Z,7.85
2023-04-18T00:14:13.684Z,8.52
2023-04-18T00:16:42.386Z,7.53
2023-04-18T00:19:10.267Z,8.52
2023-04-18T00:21:37.993Z,8.80
2023-04-18T00:24:05.669Z,8.45
2023-04-18T00:26:33.049Z,7.93
2023-04-18T00:29:00.599Z,8.70
2023-04-18T00:31:28.145Z,7.78
2023-04-18T00:33:55.648Z,7.43
2023-04-18T00:36:23.025Z,8.02
2023-04-18T00:38:50.481Z,8.52
2023-04-18T00:41:17.910Z,8.30
2023-04-18T00:43:45.323Z,8.23
2023-04-18T00:46:12.828Z,8.43
2023-04-18T00:48:40.471Z,8.23
2023-04-18T00:51:07.897Z,7.78
2023-04-18T00:53:35.337Z,8.23
2023-04-18T00:56:02.870Z,8.55
2023-04-18T00:58:30.289Z,8.87
2023-04-18T01:00:57.774Z,8.10
2023-04-18T01:03:28.307Z,7.38
2023-04-18T01:05:57.533Z,7.18
2023-04-18T01:08:25.003Z,8.60
2023-04-18T01:10:52.448Z,7.60
2023-04-18T01:13:20.661Z,8.60
2023-04-18T01:15:48.963Z,7.40
2023-04-18T01:18:16.963Z,7.50
2023-04-18T01:20:48.107Z,7.30
2023-04-18T01:23:16.130Z,7.63
2023-04-18T01:25:43.903Z,8.13
2023-04-18T01:28:11.627Z,7.97
2023-04-18T01:30:39.158Z,7.80
2023-04-18T01:33:07.035Z,7.78
2023-04-18T01:35:34.531Z,8.20
2023-04-18T01:38:02.156Z,8.98
2023-04-18T01:40:30.320Z,8.35
2023-04-18T01:42:57.803Z,7.43
2023-04-18T01:45:25.447Z,8.00
2023-04-18T01:47:53.078Z,7.97
2023-04-18T01:50:20.671Z,8.25
2023-04-18T01:52:48.077Z,8.35
2023-04-18T01:55:15.579Z,8.07
2023-04-18T01:57:42.971Z,8.13
2023-04-18T02:00:11.193Z,8.97
2023-04-18T02:02:38.838Z,7.95
2023-04-18T02:05:09.223Z,7.85
2023-04-18T02:07:36.844Z,7.85
2023-04-18T02:10:04.388Z,7.65
2023-04-18T02:12:32.733Z,8.07
2023-04-18T02:15:00.235Z,7.05
2023-04-18T02:17:28.473Z,7.88
2023-04-18T02:19:55.909Z,7.38
2023-04-18T02:22:23.353Z,6.65
2023-04-18T02:24:50.783Z,6.87
2023-04-18T02:27:18.648Z,6.72
2023-04-18T02:29:46.324Z,7.20
2023-04-18T02:32:13.922Z,6.75
2023-04-18T02:34:41.630Z,6.22
2023-04-18T02:37:09.121Z,7.10
2023-04-18T02:39:36.546Z,6.40
2023-04-18T02:42:03.999Z,6.75
2023-04-18T02:44:31.422Z,6.47
2023-04-18T02:46:58.806Z,6.75
2023-04-18T02:49:26.196Z,6.63
2023-04-18T02:51:56.847Z,6.93
2023-04-18T02:54:24.922Z,6.47
2023-04-18T02:56:53.301Z,6.40
2023-04-18T02:59:20.838Z,6.30
2023-04-18T03:01:48.372Z,6.83
2023-04-18T03:04:16.152Z,6.45
2023-04-18T03:06:43.854Z,5.93
2023-04-18T03:09:11.405Z,5.85
2023-04-18T03:11:38.926Z,6.70
2023-04-18T03:14:06.501Z,6.20
2023-04-18T03:16:33.983Z,6.18
2023-04-18T03:19:01.622Z,6.32
2023-04-18T03:21:29.018Z,6.60
2023-04-18T03:23:56.551Z,7.40
2023-04-18T03:26:25.276Z,7.63
2023-04-18T03:28:52.879Z,6.90
2023-04-18T03:31:20.579Z,6.85
2023-04-18T03:33:48.425Z,7.07
2023-04-18T03:36:19.340Z,6.00
2023-04-18T03:38:46.766Z,6.23
2023-04-18T03:41:14.154Z,6.28
2023-04-18T03:43:41.569Z,6.63
2023-04-18T03:46:08.990Z,6.15
2023-04-18T03:48:37.376Z,7.20
2023-04-18T03:51:06.346Z,6.20
2023-04-18T03:53:33.824Z,6.93
2023-04-18T03:56:01.255Z,5.90
2023-04-18T03:58:28.634Z,5.55
2023-04-18T04:00:56.174Z,6.30
2023-04-18T04:03:23.869Z,6.77
2023-04-18T04:05:51.321Z,7.32
2023-04-18T04:08:18.775Z,6.55
2023-04-18T04:10:46.189Z,5.25
2023-04-18T04:13:13.612Z,5.78
2023-04-18T04:15:41.119Z,6.93
2023-04-18T04:18:09.089Z,6.53
2023-04-18T04:20:36.596Z,6.50
2023-04-18T04:23:04.045Z,6.03
2023-04-18T04:25:33.292Z,6.10
2023-04-18T04:28:01.583Z,6.27
2023-04-18T04:30:29.027Z,6.00
2023-04-18T04:32:56.536Z,6.28
2023-04-18T04:35:23.998Z,4.90
2023-04-18T04:37:51.803Z,5.55
2023-04-18T04:40:19.233Z,4.73
2023-04-18T04:42:49.147Z,5.63
2023-04-18T04:45:17.440Z,4.65
2023-04-18T04:47:45.008Z,5.15
2023-04-18T04:50:15.529Z,4.70
2023-04-18T04:52:43.253Z,4.93
2023-04-18T04:55:11.109Z,4.95
2023-04-18T04:57:38.602Z,5.20
2023-04-18T05:00:09.033Z,4.15
2023-04-18T05:02:36.747Z,4.25
2023-04-18T05:05:04.693Z,4.97
2023-04-18T05:07:32.089Z,4.78
2023-04-18T05:09:59.651Z,4.97
2023-04-18T05:12:27.116Z,4.47
2023-04-18T05:14:54.530Z,3.95
2023-04-18T05:17:28.348Z,4.70
2023-04-18T05:19:55.909Z,4.32
2023-04-18T05:22:23.395Z,4.35
2023-04-18T05:24:50.852Z,4.20
2023-04-18T05:27:18.311Z,4.47
2023-04-18T05:29:47.637Z,4.43
2023-04-18T05:32:15.631Z,3.63
2023-04-18T05:34:43.265Z,3.88
2023-04-18T05:37:10.789Z,3.83
2023-04-18T05:39:38.394Z,4.05
2023-04-18T05:42:05.876Z,5.00
2023-04-18T05:44:33.355Z,4.15
2023-04-18T05:47:01.102Z,4.13
2023-04-18T05:49:28.518Z,4.20
2023-04-18T05:51:56.643Z,4.65
2023-04-18T05:54:27.879Z,4.13
2023-04-18T05:56:57.059Z,4.82
2023-04-18T05:59:24.884Z,4.38
2023-04-18T06:01:52.586Z,4.38
2023-04-18T06:04:21.238Z,4.07
2023-04-18T06:06:49.634Z,4.27
2023-04-18T06:09:17.740Z,3.95
2023-04-18T06:11:45.712Z,4.65
2023-04-18T06:14:13.792Z,4.47
2023-04-18T06:16:43.727Z,3.97
2023-04-18T06:19:11.270Z,4.23
2023-04-18T06:21:39.505Z,3.50
2023-04-18T06:24:07.273Z,2.65
2023-04-18T06:26:34.819Z,3.25
2023-04-18T06:29:02.269Z,3.72
2023-04-18T06:31:30.062Z,3.93
2023-04-18T06:33:57.897Z,3.83
2023-04-18T06:36:26.900Z,3.40
2023-04-18T06:38:54.420Z,3.50
2023-04-18T06:41:21.861Z,3.63
2023-04-18T06:44:02.203Z,4.60
2023-04-18T06:46:31.460Z,4.45
2023-04-18T06:48:58.965Z,4.75
2023-04-18T06:51:27.456Z,3.78
2023-04-18T06:53:55.335Z,3.60
2023-04-18T06:56:22.770Z,4.17
2023-04-18T06:58:51.698Z,4.43
2023-04-18T07:01:19.858Z,3.92
2023-04-18T07:03:47.829Z,3.72
2023-04-18T07:06:16.086Z,3.70
2023-04-18T07:08:43.512Z,4.30
2023-04-18T07:11:18.410Z,3.65
2023-04-18T07:13:47.585Z,4.55
2023-04-18T07:16:15.450Z,3.75
2023-04-18T07:18:42.894Z,4.07
2023-04-18T07:21:10.366Z,3.93
2023-04-18T07:23:37.972Z,3.78
2023-04-18T07:26:05.905Z,3.80
2023-04-18T07:28:33.642Z,4.30
2023-04-18T07:31:03.109Z,4.38
2023-04-18T07:33:34.023Z,5.43
2023-04-18T07:36:02.911Z,5.28
2023-04-18T07:38:30.326Z,4.10
2023-04-18T07:40:58.568Z,4.95
2023-04-18T07:43:26.927Z,4.40
2023-04-18T07:45:54.504Z,5.17
2023-04-18T07:48:22.799Z,4.80
2023-04-18T07:50:50.900Z,4.55
2023-04-18T07:53:18.573Z,4.30
2023-04-18T07:55:46.637Z,4.57
2023-04-18T07:58:14.752Z,4.50
2023-04-18T08:00:43.902Z,3.70
2023-04-18T08:03:12.318Z,3.60
2023-04-18T08:05:40.605Z,3.78
2023-04-18T08:08:08.466Z,3.40
2023-04-18T08:10:39.008Z,3.30
2023-04-18T08:13:06.990Z,3.70
2023-04-18T08:15:34.469Z,3.72
2023-04-18T08:18:02.135Z,3.85
2023-04-18T08:20:29.662Z,3.72
2023-04-18T08:23:07.703Z,3.50
2023-04-18T08:25:36.433Z,3.33
2023-04-18T08:28:04.365Z,3.10
2023-04-18T08:30:31.926Z,2.90
2023-04-18T08:33:02.329Z,3.20
2023-04-18T08:35:32.222Z,2.77
2023-04-18T08:37:59.956Z,2.80
2023-04-18T08:40:27.501Z,2.67
2023-04-18T08:42:54.979Z,10.75
2023-04-18T08:45:22.465Z,3.08
2023-04-18T08:47:49.982Z,2.10
2023-04-18T08:50:18.492Z,2.97
2023-04-18T08:52:49.618Z,2.42
2023-04-18T08:55:19.204Z,2.47
2023-04-18T08:57:47.555Z,2.70
2023-04-18T09:00:16.620Z,2.50
2023-04-18T09:02:45.155Z,2.90
2023-04-18T09:05:13.376Z,2.92
2023-04-18T09:07:41.236Z,2.95
2023-04-18T09:10:09.956Z,3.25
2023-04-18T09:12:42.522Z,2.60
2023-04-18T09:15:10.776Z,2.72
2023-04-18T09:17:41.460Z,2.50
2023-04-18T09:20:12.335Z,2.53
2023-04-18T09:22:48.775Z,3.05
2023-04-18T09:25:27.356Z,3.67
2023-04-18T09:27:55.318Z,3.53
2023-04-18T09:30:33.027Z,3.95
2023-04-18T09:33:01.593Z,3.38
2023-04-18T09:35:29.294Z,3.38
2023-04-18T09:37:57.019Z,3.73
2023-04-18T09:40:24.766Z,3.88
2023-04-18T09:42:55.916Z,4.60
2023-04-18T09:45:23.694Z,3.92
2023-04-18T09:47:51.524Z,4.38
2023-04-18T09:50:20.725Z,4.67
2023-04-18T09:52:48.680Z,4.70
2023-04-18T09:55:17.476Z,4.32
2023-04-18T09:57:45.885Z,4.43
2023-04-18T10:00:14.360Z,5.05
2023-04-18T10:02:46.022Z,4.50
2023-04-18T10:05:13.578Z,4.90
2023-04-18T10:07:41.102Z,4.22
2023-04-18T10:10:08.878Z,4.70
2023-04-18T10:12:36.957Z,5.38
2023-04-18T10:15:04.639Z,4.80
2023-04-18T10:17:52.579Z,5.35
2023-04-18T10:20:29.010Z,5.40
2023-04-18T10:22:56.875Z,5.13
2023-04-18T10:25:39.622Z,6.03
2023-04-18T10:28:07.427Z,4.43
2023-04-18T10:30:41.238Z,4.75
2023-04-18T10:33:30.558Z,5.25
2023-04-18T10:35:59.538Z,4.60
2023-04-18T10:38:27.339Z,4.93
2023-04-18T10:41:01.442Z,5.03
2023-04-18T10:43:28.898Z,4.70
2023-04-18T10:46:27.998Z,5.68
2023-04-18T11:04:45.108Z,6.03
2023-04-18T11:07:12.538Z,5.50
2023-04-18T11:09:40.520Z,6.18
2023-04-18T11:12:12.077Z,5.80
2023-04-18T11:14:46.576Z,8.20
2023-04-18T11:17:27.036Z,7.18
2023-04-18T11:20:01.476Z,6.82
2023-04-18T11:22:29.787Z,5.95
2023-04-18T11:25:00.967Z,7.17
2023-04-18T11:27:30.050Z,6.78
2023-04-18T11:29:57.725Z,7.30
2023-04-18T11:32:25.234Z,7.80
2023-04-18T11:34:53.658Z,7.45
2023-04-18T11:37:21.314Z,7.23
2023-04-18T11:39:48.912Z,6.72
2023-04-18T11:42:16.724Z,7.38
2023-04-18T11:44:46.291Z,6.25
2023-04-18T11:47:26.656Z,6.85
2023-04-18T11:50:12.676Z,5.70
2023-04-18T11:52:40.991Z,6.28
2023-04-18T11:55:17.505Z,6.18
2023-04-18T11:57:54.975Z,7.30
2023-04-18T12:00:31.898Z,6.65
2023-04-18T12:02:59.705Z,6.60
2023-04-18T12:05:28.088Z,6.72
2023-04-18T12:07:56.543Z,6.43
2023-04-18T12:10:25.410Z,5.97
2023-04-18T12:12:56.030Z,7.65
2023-04-18T12:15:25.313Z,6.90
2023-04-18T12:17:52.890Z,6.80
2023-04-18T12:20:20.410Z,6.80
2023-04-18T12:22:51.414Z,7.03
2023-04-18T12:25:27.697Z,7.50
2023-04-18T12:27:55.728Z,7.80
2023-04-18T12:30:23.809Z,8.30
2023-04-18T12:32:51.754Z,8.27
2023-04-18T12:35:19.476Z,8.80
2023-04-18T12:37:50.898Z,6.72
2023-04-18T12:40:22.815Z,8.40
2023-04-18T12:42:51.039Z,8.00
2023-04-18T12:45:18.825Z,7.38
2023-04-18T12:47:46.919Z,8.13
2023-04-18T12:50:18.821Z,7.78
2023-04-18T12:52:46.397Z,7.63
2023-04-18T12:55:13.993Z,7.95
2023-04-18T12:57:42.406Z,7.53
2023-04-18T13:00:13.657Z,8.23
2023-04-18T13:02:42.199Z,8.88
2023-04-18T13:05:10.445Z,10.17
2023-04-18T13:07:38.073Z,10.45
2023-04-18T13:10:05.689Z,8.65
2023-04-18T13:12:33.136Z,7.75
2023-04-18T13:15:00.820Z,8.32
2023-04-18T13:17:28.281Z,7.30
2023-04-18T13:19:55.791Z,8.57
2023-04-18T13:22:23.426Z,10.50
2023-04-18T13:24:50.800Z,11.18
2023-04-18T13:27:18.348Z,11.07
2023-04-18T13:29:45.861Z,13.13
2023-04-18T13:32:13.624Z,11.98
2023-04-18T13:34:44.814Z,14.77
2023-04-18T13:37:12.495Z,15.23
2023-04-18T13:39:40.305Z,12.73
2023-04-18T13:42:07.889Z,19.83
2023-04-18T13:44:36.160Z,39.40
2023-04-18T13:47:04.052Z,11.93
2023-04-18T13:49:31.590Z,19.65
2023-04-18T13:51:59.191Z,9.73
2023-04-18T13:54:30.101Z,9.50
2023-04-18T13:56:57.947Z,7.65
2023-04-18T13:59:25.628Z,5.90
2023-04-18T14:01:54.566Z,6.13
2023-04-18T14:04:22.884Z,6.05
2023-04-18T14:06:50.814Z,5.93
2023-04-18T14:09:18.291Z,6.22
2023-04-18T14:11:45.872Z,6.95
2023-04-18T14:14:13.313Z,7.30
2023-04-18T14:16:40.724Z,6.03
2023-04-18T14:19:08.119Z,6.77
2023-04-18T14:21:35.943Z,8.70
2023-04-18T14:24:03.833Z,7.70
2023-04-18T14:26:31.312Z,6.88
2023-04-18T14:28:59.092Z,7.18
2023-04-18T14:31:28.173Z,11.93
2023-04-18T14:33:55.774Z,10.13
2023-04-18T14:36:23.190Z,9.35
2023-04-18T14:38:50.619Z,7.72
2023-04-18T14:41:18.065Z,7.13
2023-04-18T14:43:45.532Z,11.03
2023-04-18T14:46:13.652Z,14.93
2023-04-18T14:48:41.141Z,11.65
2023-04-18T14:51:08.632Z,7.00
2023-04-18T14:53:36.108Z,7.00
2023-04-18T14:56:03.508Z,7.43
2023-04-18T14:58:31.315Z,8.75
2023-04-18T15:00:58.986Z,10.85
2023-04-18T15:03:26.662Z,8.15
2023-04-18T15:05:54.728Z,7.68
2023-04-18T15:08:22.460Z,8.27
2023-04-18T15:10:49.925Z,20.73
2023-04-18T15:13:17.424Z,8.13
2023-04-18T15:15:51.371Z,9.85
2023-04-18T15:18:18.980Z,5.20
2023-04-18T15:20:47.354Z,6.47
2023-04-18T15:23:15.078Z,8.82
2023-04-18T15:25:42.916Z,10.93
2023-04-18T15:28:10.421Z,7.78
2023-04-18T15:30:37.817Z,7.10
2023-04-18T15:33:05.454Z,9.37
2023-04-18T15:35:32.851Z,7.03
2023-04-18T15:38:00.359Z,5.57
2023-04-18T15:40:27.779Z,5.00
2023-04-18T15:42:56.112Z,5.00
2023-04-18T15:45:23.587Z,5.10
2023-04-18T15:47:51.651Z,5.65
2023-04-18T15:50:19.222Z,6.88
2023-04-18T15:52:46.723Z,5.40
2023-04-18T15:55:14.194Z,6.25
2023-04-18T15:57:41.892Z,7.00
2023-04-18T16:00:15.810Z,5.78
2023-04-18T16:02:44.223Z,5.05
2023-04-18T16:05:12.521Z,6.32
2023-04-18T16:07:40.611Z,6.80
2023-04-18T16:10:12.757Z,7.17
2023-04-18T16:12:40.678Z,6.60
2023-04-18T16:15:09.015Z,4.65
2023-04-18T16:17:36.902Z,5.53
2023-04-18T16:20:06.328Z,5.50
2023-04-18T16:22:34.007Z,5.43
2023-04-18T16:25:01.476Z,5.50
2023-04-18T16:27:29.065Z,5.03
2023-04-18T16:29:56.792Z,7.35
2023-04-18T16:32:24.277Z,5.45
2023-04-18T16:34:51.816Z,5.43
2023-04-18T16:37:19.378Z,7.35
2023-04-18T16:39:46.791Z,7.32
2023-04-18T16:42:15.782Z,7.05
2023-04-18T16:44:45.238Z,3.83
2023-04-18T16:47:12.822Z,5.93
2023-04-18T16:49:41.386Z,12.52
2023-04-18T16:52:09.117Z,10.07
2023-04-18T16:54:36.605Z,10.73
2023-04-18T16:57:04.790Z,5.85
2023-04-18T16:59:32.400Z,7.30
2023-04-18T17:02:10.438Z,8.48
2023-04-18T17:04:38.312Z,5.90
2023-04-18T17:07:05.978Z,7.20
2023-04-18T17:09:33.341Z,6.65
2023-04-18T17:12:01.894Z,5.87
2023-04-18T17:14:29.493Z,5.07
2023-04-18T17:16:56.909Z,5.97
2023-04-18T17:19:24.390Z,5.28
2023-04-18T17:21:52.090Z,5.28
2023-04-18T17:24:22.460Z,5.00
2023-04-18T17:26:49.903Z,7.50
2023-04-18T17:29:18.433Z,4.90
2023-04-18T17:31:45.934Z,5.15
2023-04-18T17:34:14.221Z,3.90
2023-04-18T17:36:41.767Z,3.50
2023-04-18T17:39:09.872Z,4.20
2023-04-18T17:41:38.175Z,3.58
2023-04-18T17:44:07.654Z,3.33
2023-04-18T17:46:35.274Z,3.38
2023-04-18T17:49:02.962Z,3.57
2023-04-18T17:51:31.134Z,2.83
2023-04-18T17:53:58.644Z,3.60
2023-04-18T17:56:26.937Z,3.55
2023-04-18T17:58:56.587Z,4.40
2023-04-18T18:01:26.135Z,4.60
2023-04-18T18:03:54.124Z,4.10
2023-04-18T18:06:22.372Z,3.90
2023-04-18T18:08:50.772Z,4.72
2023-04-18T18:11:18.439Z,4.40
2023-04-18T18:13:46.756Z,4.00
2023-04-18T18:16:14.479Z,4.03
2023-04-18T18:18:42.687Z,4.15
2023-04-18T18:21:11.454Z,3.95
2023-04-18T18:23:39.477Z,3.60
2023-04-18T18:26:07.192Z,3.77
2023-04-18T18:28:35.140Z,3.90
2023-04-18T18:31:03.531Z,3.45
2023-04-18T18:33:31.208Z,3.88
2023-04-18T18:35:58.914Z,3.28
2023-04-18T18:38:26.678Z,3.53
2023-04-18T18:40:54.353Z,3.55
2023-04-18T18:43:26.278Z,3.58
2023-04-18T18:45:53.948Z,3.85
2023-04-18T18:48:22.153Z,3.42
2023-04-18T18:50:51.437Z,3.80
2023-04-18T18:53:19.636Z,4.38
2023-04-18T18:55:47.112Z,4.60
2023-04-18T18:58:15.009Z,3.63
2023-04-18T19:00:42.406Z,3.85
2023-04-18T19:03:10.620Z,3.60
2023-04-18T19:05:38.247Z,3.20
2023-04-18T19:08:06.638Z,3.60
2023-04-18T19:10:34.959Z,3.13
2023-04-18T19:13:03.393Z,3.97
2023-04-18T19:15:31.653Z,3.70
2023-04-18T19:18:00.246Z,3.60
2023-04-18T19:20:29.349Z,3.47
2023-04-18T19:22:57.176Z,3.70
2023-04-18T19:25:25.048Z,3.60
2023-04-18T19:27:52.955Z,3.60
2023-04-18T19:30:20.586Z,3.22
2023-04-18T19:32:48.308Z,4.40
2023-04-18T19:35:17.124Z,4.10
2023-04-18T19:37:45.026Z,3.75
2023-04-18T19:40:14.262Z,4.37
2023-04-18T19:42:42.101Z,3.70
2023-04-18T19:45:11.884Z,4.43
2023-04-18T19:47:39.757Z,4.03
2023-04-18T19:50:08.060Z,4.55
2023-04-18T19:52:35.946Z,4.30
2023-04-18T19:55:04.006Z,4.03
2023-04-18T19:57:32.011Z,3.92
2023-04-18T19:59:59.725Z,4.60
2023-04-18T20:02:27.593Z,5.32
2023-04-18T20:04:55.824Z,5.77
2023-04-18T20:07:26.009Z,5.35
2023-04-18T20:09:54.515Z,5.68
2023-04-18T20:12:21.913Z,6.53
2023-04-18T20:14:49.473Z,6.22
2023-04-18T20:17:17.230Z,6.00
2023-04-18T20:19:47.128Z,6.40
2023-04-18T20:22:15.288Z,6.78
2023-04-18T20:24:45.044Z,6.28
2023-04-18T20:27:12.728Z,6.40
2023-04-18T20:29:40.488Z,6.97
2023-04-18T20:32:08.594Z,6.30
2023-04-18T20:34:36.273Z,5.82
2023-04-18T20:37:07.418Z,5.57
2023-04-18T20:39:35.144Z,6.13
2023-04-18T20:42:04.310Z,6.23
2023-04-18T20:44:34.440Z,7.20
2023-04-18T20:47:02.329Z,6.75
2023-04-18T20:49:29.907Z,6.70
2023-04-18T20:51:57.678Z,7.10
2023-04-18T20:54:25.262Z,6.97
2023-04-18T20:56:52.936Z,7.00
2023-04-18T20:59:20.613Z,6.57
2023-04-18T21:01:48.068Z,6.57
2023-04-18T21:04:15.975Z,6.60
2023-04-18T21:06:44.107Z,7.23
2023-04-18T21:09:11.734Z,7.15
2023-04-18T21:11:42.894Z,7.10
2023-04-18T21:14:10.273Z,7.35
2023-04-18T21:16:39.788Z,7.80
2023-04-18T21:19:08.373Z,6.60
2023-04-18T21:21:36.364Z,7.13
2023-04-18T21:24:03.890Z,7.00
2023-04-18T21:26:31.399Z,6.10
2023-04-18T21:28:59.556Z,7.07
2023-04-18T21:31:27.713Z,7.30
2023-04-18T21:33:55.762Z,7.68
2023-04-18T21:36:23.557Z,8.00
2023-04-18T21:38:54.256Z,6.78
2023-04-18T21:41:21.762Z,7.40
2023-04-18T21:43:49.879Z,7.77
2023-04-18T21:46:17.546Z,7.80
2023-04-18T21:48:45.955Z,7.78
2023-04-18T21:51:14.468Z,8.02
2023-04-18T21:53:42.549Z,7.00
2023-04-18T21:56:10.004Z,7.53
2023-04-18T21:58:37.637Z,7.15
2023-04-18T22:01:05.303Z,6.82
2023-04-18T22:03:34.241Z,6.88
2023-04-18T22:06:02.101Z,6.75
2023-04-18T22:08:31.041Z,7.27
2023-04-18T22:10:59.411Z,7.05
2023-04-18T22:13:30.231Z,6.90
2023-04-18T22:15:58.387Z,6.85
2023-04-18T22:18:25.928Z,6.57
2023-04-18T22:20:53.855Z,7.10
2023-04-18T22:23:21.470Z,7.57
2023-04-18T22:25:49.118Z,7.30
2023-04-18T22:28:16.837Z,6.78
2023-04-18T22:30:44.336Z,7.30
2023-04-18T22:33:12.051Z,6.50
2023-04-18T22:35:39.622Z,7.30
2023-04-18T22:38:07.054Z,7.10
2023-04-18T22:40:34.559Z,6.80
2023-04-18T22:43:01.971Z,6.78
2023-04-18T22:45:29.464Z,7.10
2023-04-18T22:47:57.080Z,6.80
2023-04-18T22:50:24.590Z,6.80
2023-04-18T22:52:52.101Z,7.10
2023-04-18T22:55:20.275Z,6.55
2023-04-18T22:57:47.706Z,6.70
2023-04-18T23:00:15.433Z,6.90
2023-04-18T23:02:43.155Z,7.30
2023-04-18T23:05:11.624Z,7.28
2023-04-18T23:07:39.203Z,7.40
2023-04-18T23:10:07.075Z,7.77
2023-04-18T23:12:34.540Z,6.43
2023-04-18T23:15:02.109Z,7.03
2023-04-18T23:17:30.086Z,7.65
2023-04-18T23:19:57.538Z,7.95
2023-04-18T23:22:25.152Z,7.70
2023-04-18T23:24:52.681Z,7.32
2023-04-18T23:27:20.252Z,7.53
2023-04-18T23:29:48.791Z,7.55
2023-04-18T23:32:16.380Z,7.68
2023-04-18T23:34:44.789Z,7.57
2023-04-18T23:37:12.292Z,7.38
2023-04-18T23:39:39.697Z,8.30
2023-04-18T23:42:07.331Z,7.10
2023-04-18T23:44:34.929Z,7.85
2023-04-18T23:47:02.704Z,7.03
2023-04-18T23:49:30.245Z,7.10
2023-04-18T23:51:58.455Z,7.40
2023-04-18T23:54:26.040Z,7.18
2023-04-18T23:56:53.509Z,7.80
2023-04-18T23:59:21.068Z,7.03
